Time;durP1;ratioP1;P1;durP2;ratioP2;P2;SDS_P1;SDS_P2;PMS_P1;PMS_P2;Temp;Humidity;BMP_temperature;BMP_pressure;BME280_temperature;BME280_humidity;BME280_pressure;Samples;Min_cycle;Max_cycle;Signal;HPM_P1;HPM_P2
2022/08/26 00:00:37;;;;;;;8.23;7.33;;;28.20;45.70;;;;;;5058739;28;20995;-87
2022/08/26 00:03:04;;;;;;;9.30;7.43;;;28.10;45.60;;;;;;5061438;28;20856;-87
2022/08/26 00:05:31;;;;;;;9.10;7.70;;;28.10;46.00;;;;;;5050127;28;20452;-87
2022/08/26 00:07:58;;;;;;;8.30;7.00;;;28.10;46.10;;;;;;5075067;28;20956;-87
2022/08/26 00:10:25;;;;;;;10.53;7.07;;;28.10;46.20;;;;;;5060644;28;20839;-87
2022/08/26 00:12:52;;;;;;;8.87;6.90;;;28.10;46.30;;;;;;5032394;28;20448;-87
2022/08/26 00:15:21;;;;;;;10.40;7.07;;;28.10;46.50;;;;;;5038484;28;20479;-90
2022/08/26 00:17:50;;;;;;;8.90;6.97;;;28.00;46.30;;;;;;5058026;28;20479;-88
2022/08/26 00:20:20;;;;;;;11.30;8.20;;;28.00;46.30;;;;;;5061224;28;20451;-88
2022/08/26 00:22:47;;;;;;;10.20;7.63;;;28.00;46.30;;;;;;5065849;28;20460;-89
2022/08/26 00:25:15;;;;;;;9.90;7.37;;;27.90;46.30;;;;;;5058123;28;20529;-86
2022/08/26 00:27:43;;;;;;;7.10;6.40;;;27.90;46.70;;;;;;5045272;28;20952;-87
2022/08/26 00:30:14;;;;;;;7.93;7.13;;;27.90;46.50;;;;;;5050084;28;20444;-87
2022/08/26 00:32:42;;;;;;;10.17;7.47;;;27.90;46.30;;;;;;5076656;28;20437;-90
2022/08/26 00:35:11;;;;;;;9.33;8.10;;;27.80;46.20;;;;;;5063915;28;21100;-88
2022/08/26 00:37:39;;;;;;;8.63;7.33;;;27.70;46.50;;;;;;5052209;28;20518;-88
2022/08/26 00:40:08;;;;;;;11.00;7.93;;;27.70;46.60;;;;;;5060016;28;20479;-87
2022/08/26 00:42:35;;;;;;;12.17;7.17;;;27.60;46.80;;;;;;5068413;28;20449;-88
2022/08/26 00:45:03;;;;;;;11.20;7.80;;;27.60;46.70;;;;;;5062562;28;21001;-87
2022/08/26 00:47:34;;;;;;;8.20;7.20;;;27.60;46.80;;;;;;5059569;28;20455;-88
2022/08/26 00:50:07;;;;;;;8.50;7.30;;;27.60;46.90;;;;;;5059778;28;20460;-87
2022/08/26 00:52:35;;;;;;;9.00;6.77;;;27.60;47.00;;;;;;5043335;28;20538;-89
2022/08/26 00:55:09;;;;;;;11.83;7.80;;;27.50;46.80;;;;;;5074871;28;20480;-87
2022/08/26 00:57:37;;;;;;;10.30;7.83;;;27.50;46.80;;;;;;5058630;28;20468;-87
2022/08/26 01:00:10;;;;;;;8.10;7.27;;;27.50;46.90;;;;;;5042442;28;20807;-90
2022/08/26 01:02:37;;;;;;;8.30;6.60;;;27.40;46.90;;;;;;5043898;28;20467;-87
2022/08/26 01:05:08;;;;;;;11.20;8.50;;;27.40;47.00;;;;;;5062488;28;20467;-88
2022/08/26 01:07:35;;;;;;;8.23;6.97;;;27.30;47.20;;;;;;5049926;28;20437;-87
2022/08/26 01:10:07;;;;;;;10.50;7.40;;;27.30;47.00;;;;;;5050427;28;20506;-86
2022/08/26 01:12:37;;;;;;;11.83;7.30;;;27.30;47.00;;;;;;5057069;28;21855;-87
2022/08/26 01:15:06;;;;;;;9.43;7.23;;;27.20;47.10;;;;;;5076552;28;21056;-87
2022/08/26 01:17:33;;;;;;;8.70;7.80;;;27.20;47.00;;;;;;5050098;28;20468;-89
2022/08/26 01:20:04;;;;;;;8.83;7.20;;;27.20;47.60;;;;;;5076884;28;20448;-87
2022/08/26 01:22:44;;;;;;;7.93;7.13;;;27.10;47.60;;;;;;5044977;28;20445;-88
2022/08/26 01:25:11;;;;;;;11.10;7.90;;;27.10;47.70;;;;;;5057113;28;20452;-86
2022/08/26 01:27:39;;;;;;;13.43;8.03;;;27.10;47.30;;;;;;5060242;28;21504;-87
2022/08/26 01:30:07;;;;;;;8.37;7.50;;;27.00;47.30;;;;;;5051574;28;20449;-87
2022/08/26 01:32:35;;;;;;;9.10;6.97;;;26.90;47.90;;;;;;5071270;28;20460;-87
2022/08/26 01:35:02;;;;;;;8.23;7.20;;;26.90;46.90;;;;;;5077662;28;20974;-88
2022/08/26 01:37:35;;;;;;;9.77;7.37;;;26.80;47.30;;;;;;5057782;28;20461;-89
2022/08/26 01:40:09;;;;;;;9.30;8.40;;;26.80;46.50;;;;;;5060200;28;20468;-88
2022/08/26 01:42:36;;;;;;;9.13;7.60;;;26.70;47.20;;;;;;5075183;28;20435;-87
2022/08/26 01:45:09;;;;;;;8.53;7.63;;;26.70;47.90;;;;;;5074839;28;20457;-87
2022/08/26 01:47:38;;;;;;;10.43;7.40;;;26.70;48.10;;;;;;5067549;28;20801;-88
2022/08/26 01:50:10;;;;;;;8.40;7.60;;;26.70;48.20;;;;;;5058909;28;20468;-87
2022/08/26 01:52:44;;;;;;;10.37;7.50;;;26.70;48.20;;;;;;5051468;28;20457;-86
2022/08/26 01:55:14;;;;;;;10.70;7.87;;;26.70;48.30;;;;;;5076441;28;20452;-86
2022/08/26 01:57:43;;;;;;;11.10;8.40;;;26.70;48.20;;;;;;5075205;28;20456;-86
2022/08/26 02:00:13;;;;;;;9.60;7.60;;;26.70;48.40;;;;;;5076783;28;20468;-87
2022/08/26 02:02:41;;;;;;;9.67;7.57;;;26.70;48.40;;;;;;5079031;28;20479;-86
2022/08/26 02:05:11;;;;;;;12.00;7.60;;;26.60;48.50;;;;;;5073737;28;20538;-87
2022/08/26 02:07:40;;;;;;;8.73;7.83;;;26.60;48.70;;;;;;5055186;28;20433;-87
2022/08/26 02:10:08;;;;;;;9.17;7.93;;;26.60;49.20;;;;;;5050800;28;20458;-87
2022/08/26 02:12:37;;;;;;;13.20;7.90;;;26.60;50.00;;;;;;5071697;28;20459;-88
2022/08/26 02:15:08;;;;;;;10.50;7.50;;;26.60;50.10;;;;;;5051681;28;20543;-87
2022/08/26 02:17:39;;;;;;;9.30;6.90;;;26.60;49.90;;;;;;5060950;28;21052;-87
2022/08/26 02:20:08;;;;;;;12.17;7.90;;;26.60;49.40;;;;;;5061562;28;20437;-86
2022/08/26 02:22:35;;;;;;;8.73;7.60;;;26.50;49.00;;;;;;5066850;28;20448;-87
2022/08/26 02:25:11;;;;;;;9.13;8.20;;;26.50;49.00;;;;;;5063391;28;20482;-87
2022/08/26 02:27:39;;;;;;;8.70;7.60;;;26.50;49.10;;;;;;5061554;28;20432;-88
2022/08/26 02:30:11;;;;;;;7.80;6.70;;;26.50;48.80;;;;;;5073206;28;20808;-88
2022/08/26 02:32:39;;;;;;;13.70;7.93;;;26.40;48.80;;;;;;5077468;28;20449;-87
2022/08/26 02:35:08;;;;;;;10.00;7.90;;;26.40;49.20;;;;;;5079407;28;20475;-87
2022/08/26 02:37:35;;;;;;;9.60;8.10;;;26.40;49.50;;;;;;5075086;28;20842;-86
2022/08/26 02:40:03;;;;;;;9.77;8.20;;;26.30;49.40;;;;;;5077044;28;20448;-88
2022/08/26 02:42:31;;;;;;;9.83;7.83;;;26.30;49.30;;;;;;5066655;28;20456;-87
2022/08/26 02:44:59;;;;;;;11.10;8.00;;;26.30;49.50;;;;;;5072571;28;21035;-87
2022/08/26 02:47:27;;;;;;;9.50;8.10;;;26.20;49.40;;;;;;5053553;28;20441;-87
2022/08/26 02:49:54;;;;;;;13.90;7.57;;;26.20;49.30;;;;;;5040046;28;20472;-87
2022/08/26 02:52:21;;;;;;;10.30;8.00;;;26.20;49.00;;;;;;5056542;28;20443;-86
2022/08/26 02:54:48;;;;;;;10.10;8.80;;;26.10;48.90;;;;;;5054469;28;20472;-87
2022/08/26 02:57:15;;;;;;;9.87;7.80;;;26.10;49.60;;;;;;5072037;28;20439;-87
2022/08/26 02:59:42;;;;;;;10.20;7.70;;;26.10;49.70;;;;;;5074487;28;21012;-87
2022/08/26 03:02:11;;;;;;;9.40;7.63;;;26.10;49.60;;;;;;5058316;28;20443;-87
2022/08/26 03:04:38;;;;;;;12.50;8.47;;;26.00;49.40;;;;;;5073300;28;20890;-88
2022/08/26 03:07:06;;;;;;;9.90;7.90;;;26.00;49.80;;;;;;5060443;28;20491;-87
2022/08/26 03:09:33;;;;;;;9.77;7.63;;;26.00;49.80;;;;;;5075203;28;20468;-88
2022/08/26 03:12:01;;;;;;;11.87;7.90;;;26.00;50.00;;;;;;5074541;28;20988;-86
2022/08/26 03:14:28;;;;;;;9.63;8.13;;;25.90;49.90;;;;;;5076186;28;20471;-86
2022/08/26 03:16:55;;;;;;;8.33;7.07;;;25.90;50.30;;;;;;5074740;28;20947;-88
2022/08/26 03:19:25;;;;;;;9.23;7.90;;;25.90;50.50;;;;;;5077721;28;20474;-87
2022/08/26 03:21:53;;;;;;;11.83;7.97;;;25.90;50.60;;;;;;5060618;28;20538;-88
2022/08/26 03:24:21;;;;;;;10.67;8.13;;;25.80;50.70;;;;;;5044097;28;20483;-87
2022/08/26 03:26:48;;;;;;;10.60;8.53;;;25.80;50.80;;;;;;5063113;28;20539;-87
2022/08/26 03:32:00;;;;;;;10.50;7.90;;;25.70;51.60;;;;;;5042960;28;20800;-87
2022/08/26 03:34:28;;;;;;;11.10;8.20;;;25.60;51.70;;;;;;5032042;28;20475;-84
2022/08/26 03:36:55;;;;;;;11.73;8.83;;;25.60;51.70;;;;;;5076416;28;20479;-87
2022/08/26 03:39:22;;;;;;;10.80;8.50;;;25.60;51.70;;;;;;5057670;28;20958;-87
2022/08/26 03:41:50;;;;;;;11.00;7.90;;;25.60;51.70;;;;;;5075998;28;20439;-87
2022/08/26 03:44:17;;;;;;;10.00;8.13;;;25.40;51.70;;;;;;5076198;28;20465;-87
2022/08/26 03:46:44;;;;;;;9.20;7.87;;;25.30;51.90;;;;;;5028285;28;21162;-87
2022/08/26 03:49:11;;;;;;;11.47;8.60;;;25.30;51.40;;;;;;5048995;28;20450;-86
2022/08/26 03:51:40;;;;;;;10.77;9.07;;;25.30;51.80;;;;;;5060946;28;21009;-87
2022/08/26 03:54:08;;;;;;;10.03;8.27;;;25.20;52.30;;;;;;5058465;28;20503;-88
2022/08/26 03:56:35;;;;;;;9.30;8.30;;;25.20;52.20;;;;;;5040411;28;20456;-87
2022/08/26 03:59:02;;;;;;;12.23;9.00;;;25.30;52.10;;;;;;5061137;28;20475;-86
2022/08/26 04:01:30;;;;;;;17.60;9.00;;;25.30;51.90;;;;;;5024443;28;20538;-87
2022/08/26 04:03:57;;;;;;;11.83;8.43;;;25.30;51.70;;;;;;5063910;28;20495;-87
2022/08/26 04:06:25;;;;;;;9.80;8.20;;;25.30;51.60;;;;;;5059880;28;20459;-86
2022/08/26 04:08:55;;;;;;;11.83;8.70;;;25.40;51.70;;;;;;5044456;28;20437;-87
2022/08/26 04:11:27;;;;;;;10.20;8.27;;;25.40;51.30;;;;;;5060539;28;20934;-87
2022/08/26 04:13:54;;;;;;;13.60;8.57;;;25.30;50.90;;;;;;5081871;28;20464;-87
2022/08/26 04:16:21;;;;;;;10.47;9.23;;;25.30;50.80;;;;;;5063629;28;20881;-87
2022/08/26 04:18:48;;;;;;;9.40;7.60;;;25.30;51.30;;;;;;5062685;28;20852;-87
2022/08/26 04:21:15;;;;;;;11.83;9.57;;;25.20;51.50;;;;;;5060842;28;20527;-85
2022/08/26 04:23:42;;;;;;;13.67;9.07;;;25.20;51.50;;;;;;5062464;28;20468;-87
2022/08/26 04:26:10;;;;;;;11.90;8.73;;;25.30;51.70;;;;;;5081946;28;20960;-86
2022/08/26 04:28:37;;;;;;;12.00;8.80;;;25.20;51.70;;;;;;5072044;28;20815;-87
2022/08/26 04:31:07;;;;;;;11.20;8.90;;;25.20;51.60;;;;;;5046507;28;20459;-87
2022/08/26 04:33:34;;;;;;;9.97;8.30;;;25.20;51.50;;;;;;5064184;28;21003;-89
2022/08/26 04:36:02;;;;;;;10.63;8.70;;;25.20;51.50;;;;;;5081470;28;20459;-87
2022/08/26 04:38:29;;;;;;;10.07;8.23;;;25.20;51.60;;;;;;5061043;28;20464;-86
2022/08/26 04:40:56;;;;;;;13.07;8.80;;;25.20;51.60;;;;;;5079271;28;20455;-84
2022/08/26 04:43:29;;;;;;;12.83;9.03;;;25.10;51.70;;;;;;5079525;28;20465;-87
2022/08/26 04:45:58;;;;;;;13.47;8.70;;;25.10;51.80;;;;;;5066505;28;20460;-87
2022/08/26 04:48:26;;;;;;;12.00;7.80;;;25.10;51.90;;;;;;5075910;28;20524;-87
2022/08/26 04:50:53;;;;;;;12.03;8.47;;;25.10;52.60;;;;;;5060006;28;20532;-84
2022/08/26 04:53:20;;;;;;;12.13;7.87;;;25.10;52.20;;;;;;5059876;28;20535;-87
2022/08/26 04:55:47;;;;;;;9.10;7.97;;;25.10;52.00;;;;;;5082851;28;20456;-89
2022/08/26 04:58:15;;;;;;;11.73;7.90;;;25.10;52.00;;;;;;5054124;28;20480;-86
2022/08/26 05:00:44;;;;;;;11.10;8.70;;;25.10;52.20;;;;;;5064494;28;20444;-87
2022/08/26 05:03:12;;;;;;;10.10;7.50;;;25.10;52.00;;;;;;5075091;28;21008;-85
2022/08/26 05:05:41;;;;;;;10.10;7.90;;;25.10;52.70;;;;;;5054234;28;20440;-85
2022/08/26 05:08:09;;;;;;;11.97;8.20;;;25.10;52.20;;;;;;5074057;28;21008;-85
2022/08/26 05:10:40;;;;;;;12.70;8.97;;;25.10;52.60;;;;;;5074693;28;20440;-85
2022/08/26 05:13:07;;;;;;;14.20;9.10;;;25.10;52.60;;;;;;5075078;28;20468;-86
2022/08/26 05:15:35;;;;;;;12.43;9.60;;;25.10;52.90;;;;;;5054242;28;20456;-86
2022/08/26 05:18:04;;;;;;;11.30;8.20;;;25.10;53.20;;;;;;5056353;28;20994;-85
2022/08/26 05:20:32;;;;;;;11.67;9.10;;;25.10;53.40;;;;;;5074828;28;20444;-85
2022/08/26 05:23:00;;;;;;;12.00;9.10;;;25.10;53.30;;;;;;5059057;28;21022;-85
2022/08/26 05:25:27;;;;;;;11.20;8.50;;;25.20;53.20;;;;;;5055491;28;20529;-85
2022/08/26 05:27:54;;;;;;;10.73;8.60;;;25.20;53.60;;;;;;5053163;28;20991;-85
2022/08/26 05:30:21;;;;;;;11.63;9.10;;;25.10;53.70;;;;;;5074137;28;20547;-85
2022/08/26 05:32:48;;;;;;;14.43;9.23;;;25.10;53.60;;;;;;5054455;28;20452;-85
2022/08/26 05:35:17;;;;;;;11.97;9.37;;;25.10;53.50;;;;;;5047738;28;20455;-85
2022/08/26 05:37:44;;;;;;;13.93;8.70;;;25.20;53.70;;;;;;5056248;28;20465;-87
2022/08/26 05:40:12;;;;;;;12.00;8.20;;;25.20;53.40;;;;;;5058204;28;20471;-85
2022/08/26 05:42:39;;;;;;;11.93;8.97;;;25.20;53.50;;;;;;5048853;28;20463;-86
2022/08/26 05:45:07;;;;;;;15.37;10.30;;;25.00;53.80;;;;;;5075587;28;20464;-85
2022/08/26 05:47:34;;;;;;;13.50;9.30;;;25.00;54.30;;;;;;5071871;28;20452;-85
2022/08/26 05:50:04;;;;;;;14.07;8.90;;;25.10;54.30;;;;;;5073979;28;20459;-86
2022/08/26 05:52:32;;;;;;;12.50;8.93;;;25.10;54.30;;;;;;5075175;28;20840;-87
2022/08/26 05:55:00;;;;;;;12.90;9.30;;;25.30;53.70;;;;;;5073040;28;20514;-86
2022/08/26 05:57:28;;;;;;;11.17;9.00;;;25.30;53.80;;;;;;5073271;28;20460;-86
2022/08/26 05:59:56;;;;;;;12.60;9.97;;;25.30;53.70;;;;;;5059303;28;20472;-86
2022/08/26 06:02:23;;;;;;;13.17;9.03;;;25.40;53.80;;;;;;5055030;28;20458;-85
2022/08/26 06:04:50;;;;;;;11.07;8.90;;;25.40;53.60;;;;;;5053727;28;20475;-85
2022/08/26 06:08:09;;;;;;;12.00;9.50;;;25.40;53.50;;;;;;5063152;28;20567;-85
2022/08/26 06:10:09;;;;;;;12.43;8.60;;;25.40;53.60;;;;;;5071777;28;20432;-86
2022/08/26 06:12:36;;;;;;;12.60;9.93;;;25.30;53.60;;;;;;5054066;28;20482;-87
2022/08/26 06:15:03;;;;;;;13.47;10.20;;;25.20;53.60;;;;;;5048740;28;20482;-85
2022/08/26 06:17:31;;;;;;;14.53;10.10;;;25.30;53.60;;;;;;5054579;28;20448;-87
2022/08/26 06:19:58;;;;;;;12.90;9.00;;;25.40;53.50;;;;;;5041542;28;20519;-86
2022/08/26 06:28:01;;;;;;;14.27;8.83;;;25.50;53.30;;;;;;5044197;28;20471;-86
2022/08/26 06:30:28;;;;;;;13.40;8.93;;;25.50;52.80;;;;;;5040809;28;21381;-85
2022/08/26 06:32:55;;;;;;;11.70;9.20;;;25.50;52.70;;;;;;5072135;28;20464;-85
2022/08/26 06:35:22;;;;;;;13.30;9.13;;;25.50;53.10;;;;;;5046836;28;20564;-85
2022/08/26 06:37:49;;;;;;;19.33;9.07;;;25.60;53.20;;;;;;5043605;28;20535;-84
2022/08/26 06:40:19;;;;;;;11.83;8.23;;;25.60;52.70;;;;;;5073472;28;20550;-85
2022/08/26 06:42:46;;;;;;;13.00;9.10;;;25.60;53.00;;;;;;5072065;28;20448;-83
2022/08/26 06:45:13;;;;;;;10.63;8.73;;;25.80;52.80;;;;;;5071287;28;20462;-85
2022/08/26 06:47:40;;;;;;;10.37;8.30;;;26.00;52.50;;;;;;5056030;28;20458;-85
2022/08/26 06:50:08;;;;;;;10.23;9.00;;;26.10;52.00;;;;;;5038635;28;20444;-85
2022/08/26 06:52:35;;;;;;;12.23;8.83;;;26.10;51.40;;;;;;5072788;28;20451;-85
2022/08/26 06:55:02;;;;;;;10.90;7.70;;;26.00;51.40;;;;;;5072092;28;20865;-85
2022/08/26 06:57:31;;;;;;;8.43;7.53;;;26.10;51.30;;;;;;5054748;28;20444;-86
2022/08/26 06:59:58;;;;;;;24.20;10.37;;;26.20;51.10;;;;;;5054614;28;20479;-85
2022/08/26 07:02:25;;;;;;;25.43;9.50;;;26.30;50.80;;;;;;5071496;28;20467;-86
2022/08/26 07:04:52;;;;;;;17.53;8.70;;;26.40;50.70;;;;;;5074674;28;20514;-85
2022/08/26 07:07:19;;;;;;;13.33;8.23;;;26.30;50.30;;;;;;5072945;28;20448;-85
2022/08/26 07:09:46;;;;;;;15.40;8.30;;;26.20;50.50;;;;;;5036518;28;21123;-85
2022/08/26 07:12:13;;;;;;;14.13;8.10;;;26.40;50.50;;;;;;5052764;28;20453;-86
2022/08/26 07:14:41;;;;;;;14.63;9.00;;;26.60;50.30;;;;;;5072616;28;20476;-85
2022/08/26 07:17:08;;;;;;;8.47;7.33;;;26.60;50.00;;;;;;5054190;28;20462;-86
2022/08/26 07:19:35;;;;;;;13.93;9.00;;;26.70;50.00;;;;;;5073733;28;20718;-85
2022/08/26 07:22:05;;;;;;;20.43;9.80;;;26.80;50.10;;;;;;5054320;28;20474;-86
2022/08/26 07:24:33;;;;;;;13.23;7.63;;;26.80;50.10;;;;;;5071399;28;20564;-86
2022/08/26 07:27:01;;;;;;;22.03;9.40;;;26.90;49.80;;;;;;5039456;28;20471;-86
2022/08/26 07:29:28;;;;;;;12.43;8.70;;;26.80;50.30;;;;;;5056405;28;20448;-85
2022/08/26 07:31:56;;;;;;;10.87;8.33;;;26.80;50.00;;;;;;5037982;28;20444;-85
2022/08/26 07:34:24;;;;;;;12.50;8.30;;;26.80;50.50;;;;;;5055157;28;20486;-86
2022/08/26 07:36:51;;;;;;;12.73;7.90;;;26.90;50.40;;;;;;5057156;28;20452;-86
2022/08/26 07:39:18;;;;;;;17.57;9.67;;;27.10;49.50;;;;;;5059081;28;20522;-86
2022/08/26 07:41:46;;;;;;;20.13;8.57;;;27.10;49.40;;;;;;5044965;28;20444;-85
2022/08/26 07:44:13;;;;;;;18.37;8.83;;;27.20;49.40;;;;;;5048446;28;20556;-87
2022/08/26 07:46:41;;;;;;;14.40;9.40;;;26.90;49.90;;;;;;5077094;28;20453;-86
2022/08/26 07:49:10;;;;;;;11.67;8.20;;;27.10;49.50;;;;;;5058040;28;20454;-86
2022/08/26 07:51:38;;;;;;;10.97;7.97;;;27.30;49.30;;;;;;5075150;28;20986;-88
2022/08/26 07:54:06;;;;;;;14.80;9.80;;;27.40;49.10;;;;;;5048214;28;20579;-88
2022/08/26 07:56:34;;;;;;;18.77;9.47;;;27.50;48.90;;;;;;5075526;28;21303;-86
2022/08/26 07:59:01;;;;;;;12.10;9.93;;;27.60;49.10;;;;;;5050864;28;20456;-86
2022/08/26 08:01:30;;;;;;;14.70;8.63;;;27.70;48.40;;;;;;5039295;28;20459;-87
2022/08/26 08:03:59;;;;;;;13.90;9.10;;;27.80;48.70;;;;;;5058111;28;20483;-86
2022/08/26 08:06:27;;;;;;;15.13;8.40;;;27.80;48.70;;;;;;5074553;28;20451;-86
2022/08/26 08:08:55;;;;;;;19.93;9.70;;;27.90;48.90;;;;;;5058098;28;20449;-86
2022/08/26 08:11:23;;;;;;;19.23;9.10;;;28.10;48.20;;;;;;5072130;27;20489;-88
2022/08/26 08:13:51;;;;;;;16.03;8.53;;;28.20;48.10;;;;;;5059348;28;20775;-88
2022/08/26 08:16:18;;;;;;;18.03;9.20;;;28.40;48.00;;;;;;5056278;28;20440;-86
2022/08/26 08:18:45;;;;;;;14.30;8.83;;;28.50;47.70;;;;;;5049242;28;20439;-86
2022/08/26 08:21:12;;;;;;;13.43;8.50;;;28.60;47.60;;;;;;5055793;28;20495;-85
2022/08/26 08:23:40;;;;;;;11.27;8.60;;;28.60;47.40;;;;;;5078095;28;20861;-85
2022/08/26 08:26:10;;;;;;;18.03;8.53;;;28.70;47.30;;;;;;5048953;28;20464;-86
2022/08/26 08:28:38;;;;;;;13.47;9.47;;;28.80;47.20;;;;;;5071816;28;20462;-87
2022/08/26 08:31:06;;;;;;;17.30;9.20;;;29.00;47.00;;;;;;5053272;28;20523;-87
2022/08/26 08:33:34;;;;;;;17.43;10.30;;;29.10;46.60;;;;;;5057173;28;20487;-87
2022/08/26 08:36:01;;;;;;;17.43;9.90;;;29.20;46.30;;;;;;5066507;28;20453;-87
2022/08/26 08:38:28;;;;;;;12.67;9.23;;;29.30;46.10;;;;;;5070016;28;20983;-86
2022/08/26 08:40:57;;;;;;;14.47;9.23;;;29.40;45.80;;;;;;5052900;28;20463;-87
2022/08/26 08:43:31;;;;;;;16.27;8.83;;;29.50;45.80;;;;;;5070241;28;20476;-87
2022/08/26 08:46:03;;;;;;;15.83;8.80;;;29.70;45.60;;;;;;5039663;28;20487;-86
2022/08/26 08:48:33;;;;;;;14.33;9.00;;;29.80;45.30;;;;;;5068035;28;20459;-86
2022/08/26 08:51:05;;;;;;;15.67;10.23;;;29.90;44.80;;;;;;5038069;28;20493;-88
2022/08/26 08:53:36;;;;;;;14.03;9.13;;;30.00;44.70;;;;;;5038050;28;20469;-87
2022/08/26 08:56:13;;;;;;;14.90;8.90;;;30.10;44.50;;;;;;5067437;28;20452;-87
2022/08/26 08:58:52;;;;;;;13.10;8.60;;;30.20;44.40;;;;;;5037644;28;20449;-86
2022/08/26 09:01:27;;;;;;;13.40;8.80;;;30.30;44.40;;;;;;5055635;28;21143;-87
2022/08/26 09:04:08;;;;;;;13.63;9.37;;;30.40;44.20;;;;;;5057244;28;20478;-85
2022/08/26 09:06:35;;;;;;;13.43;8.57;;;30.50;43.50;;;;;;5052154;28;20459;-86
2022/08/26 09:09:03;;;;;;;16.43;9.07;;;30.60;43.60;;;;;;5052405;28;20456;-88
2022/08/26 09:11:31;;;;;;;15.33;9.20;;;30.60;43.20;;;;;;5050052;28;20459;-88
2022/08/26 09:13:58;;;;;;;14.47;8.93;;;30.70;43.50;;;;;;5069878;28;20474;-87
2022/08/26 09:16:32;;;;;;;21.30;8.80;;;30.80;43.10;;;;;;5051795;28;20459;-88
2022/08/26 09:19:13;;;;;;;12.27;8.70;;;31.00;43.00;;;;;;5036022;28;20533;-88
2022/08/26 09:21:40;;;;;;;14.30;9.43;;;31.20;42.30;;;;;;5058005;28;20862;-92
2022/08/26 09:24:07;;;;;;;16.80;10.43;;;31.40;42.00;;;;;;5038152;28;20468;-90
2022/08/26 09:26:46;;;;;;;14.30;9.00;;;31.60;41.70;;;;;;5039155;28;20464;-91
2022/08/26 09:29:22;;;;;;;13.23;8.37;;;31.80;41.00;;;;;;5054017;28;20474;-91
2022/08/26 09:31:50;;;;;;;9.80;7.60;;;31.90;40.50;;;;;;5067252;28;20824;-90
2022/08/26 09:34:20;;;;;;;14.07;8.87;;;32.10;40.50;;;;;;5070334;28;20539;-91
2022/08/26 09:36:49;;;;;;;10.50;9.50;;;32.30;40.10;;;;;;5046993;28;20513;-90
2022/08/26 09:39:32;;;;;;;10.77;8.13;;;32.40;39.60;;;;;;5046183;28;20456;-91
2022/08/26 09:42:09;;;;;;;13.53;8.30;;;32.40;39.20;;;;;;5039291;28;20440;-91
2022/08/26 09:44:53;;;;;;;16.83;8.70;;;32.60;39.00;;;;;;5036978;28;20469;-91
2022/08/26 09:47:25;;;;;;;10.33;8.00;;;32.70;39.30;;;;;;5055634;28;20450;-91
2022/08/26 09:49:59;;;;;;;14.83;8.30;;;33.00;38.90;;;;;;5041088;28;20530;-91
2022/08/26 09:52:27;;;;;;;10.90;7.50;;;33.30;38.30;;;;;;5053751;28;21211;-90
2022/08/26 09:55:02;;;;;;;9.80;8.60;;;33.50;37.60;;;;;;5030813;28;21014;-90
2022/08/26 09:57:33;;;;;;;14.63;7.67;;;33.70;36.90;;;;;;5057779;28;20479;-89
2022/08/26 10:00:01;;;;;;;10.97;7.13;;;33.60;36.40;;;;;;5027015;28;20529;-91
2022/08/26 10:02:44;;;;;;;9.47;7.73;;;33.70;36.70;;;;;;5030965;28;20966;-92
2022/08/26 10:05:18;;;;;;;11.33;6.70;;;33.90;36.20;;;;;;5074997;28;20472;-89
2022/08/26 10:07:48;;;;;;;12.93;7.70;;;34.30;36.20;;;;;;5070257;28;20434;-90
2022/08/26 10:10:22;;;;;;;14.93;8.17;;;34.50;35.70;;;;;;5039835;28;20456;-90
2022/08/26 10:13:03;;;;;;;18.67;8.27;;;34.70;35.50;;;;;;5041312;28;20966;-91
2022/08/26 10:15:39;;;;;;;8.90;7.70;;;34.80;35.30;;;;;;5072951;28;20497;-91
2022/08/26 10:18:14;;;;;;;10.13;7.10;;;34.90;35.10;;;;;;5075475;28;20493;-91
2022/08/26 10:20:54;;;;;;;13.57;7.40;;;34.90;33.60;;;;;;5033421;28;20488;-91
2022/08/26 10:23:25;;;;;;;13.23;6.83;;;34.90;33.40;;;;;;5067296;28;20521;-90
2022/08/26 10:25:56;;;;;;;8.77;6.70;;;34.70;33.10;;;;;;5051148;28;20846;-91
2022/08/26 10:28:30;;;;;;;7.27;6.47;;;34.80;33.20;;;;;;5059240;28;21016;-91
2022/08/26 10:31:03;;;;;;;14.60;7.37;;;35.00;32.00;;;;;;5046297;28;20459;-91
2022/08/26 10:33:30;;;;;;;14.70;7.60;;;35.10;32.40;;;;;;5038261;28;20463;-91
2022/08/26 10:36:01;;;;;;;14.07;7.20;;;35.10;31.80;;;;;;5046346;28;20472;-90
2022/08/26 10:38:33;;;;;;;12.03;7.20;;;34.90;31.90;;;;;;5062039;28;21056;-90
2022/08/26 10:41:05;;;;;;;14.40;7.20;;;34.80;32.50;;;;;;5056238;28;20464;-91
2022/08/26 10:43:37;;;;;;;12.00;7.30;;;34.90;32.50;;;;;;5075474;28;20478;-92
2022/08/26 10:46:09;;;;;;;10.43;6.77;;;35.10;32.30;;;;;;5056069;28;20452;-90
2022/08/26 10:48:46;;;;;;;10.57;7.43;;;35.30;32.50;;;;;;5040751;28;20444;-91
2022/08/26 10:51:15;;;;;;;10.50;7.30;;;35.40;31.30;;;;;;5056646;28;21231;-90
2022/08/26 10:53:49;;;;;;;9.30;7.30;;;35.60;31.80;;;;;;5071825;28;20483;-90
2022/08/26 10:56:27;;;;;;;13.60;7.97;;;35.90;31.10;;;;;;5042186;28;21034;-91
2022/08/26 10:59:06;;;;;;;9.07;7.47;;;35.80;31.20;;;;;;5072487;28;20440;-91
2022/08/26 11:01:45;;;;;;;11.80;7.33;;;35.50;31.30;;;;;;5039373;28;20522;-91
2022/08/26 11:04:38;;;;;;;13.93;7.20;;;35.30;32.10;;;;;;5073580;28;20467;-89
2022/08/26 11:07:30;;;;;;;7.97;6.90;;;35.10;32.80;;;;;;5065658;28;20874;-91
2022/08/26 11:09:59;;;;;;;11.70;7.40;;;34.80;32.70;;;;;;5073990;28;20492;-91
2022/08/26 11:12:50;;;;;;;13.97;7.60;;;34.60;32.90;;;;;;5028241;28;20431;-91
2022/08/26 11:16:05;;;;;;;13.60;7.60;;;34.40;33.20;;;;;;5077051;28;20522;-91
2022/08/26 11:18:42;;;;;;;17.43;7.47;;;34.30;33.30;;;;;;5046208;28;20452;-90
2022/08/26 11:21:42;;;;;;;14.97;7.47;;;34.20;33.30;;;;;;5042421;28;20984;-90
2022/08/26 11:24:09;;;;;;;9.63;7.00;;;34.20;33.20;;;;;;5058335;28;20479;-89
2022/08/26 11:26:37;;;;;;;16.33;7.10;;;34.10;33.50;;;;;;5050586;28;20543;-90
2022/08/26 11:29:04;;;;;;;8.40;6.93;;;34.10;33.60;;;;;;5057896;28;20436;-90
2022/08/26 11:31:55;;;;;;;8.43;7.10;;;34.00;33.30;;;;;;5060831;28;20444;-90
2022/08/26 11:34:52;;;;;;;13.93;7.70;;;34.10;33.80;;;;;;5054446;28;20471;-89
2022/08/26 11:37:23;;;;;;;8.23;6.80;;;34.20;33.90;;;;;;5059507;28;20468;-91
2022/08/26 11:39:54;;;;;;;9.40;7.90;;;34.20;33.70;;;;;;5060070;28;20459;-90
2022/08/26 11:42:30;;;;;;;15.93;7.67;;;34.20;34.40;;;;;;5058053;28;20572;-90
2022/08/26 11:44:58;;;;;;;10.50;7.50;;;34.20;33.90;;;;;;5061025;28;20586;-92
2022/08/26 11:47:28;;;;;;;9.03;7.43;;;34.20;34.20;;;;;;5043174;28;20463;-91
2022/08/26 11:50:16;;;;;;;15.73;7.80;;;34.20;34.40;;;;;;5069908;28;20528;-90
2022/08/26 11:52:53;;;;;;;11.77;7.30;;;34.20;35.10;;;;;;5061892;28;20544;-91
2022/08/26 11:55:21;;;;;;;11.60;6.87;;;34.10;35.30;;;;;;5069883;28;20515;-90
2022/08/26 11:57:51;;;;;;;9.57;7.60;;;34.00;36.10;;;;;;5050218;28;20493;-90
2022/08/26 12:00:20;;;;;;;9.50;7.43;;;33.80;36.10;;;;;;5067085;28;20455;-90
2022/08/26 12:02:47;;;;;;;10.97;7.20;;;33.70;36.50;;;;;;5059735;28;20458;-90
2022/08/26 12:05:27;;;;;;;12.43;7.50;;;33.40;37.20;;;;;;5076492;28;20985;-90
2022/08/26 12:07:55;;;;;;;11.57;7.17;;;33.20;37.40;;;;;;5080553;28;20444;-90
2022/08/26 12:10:29;;;;;;;10.40;7.30;;;33.20;37.30;;;;;;5041399;28;20972;-90
2022/08/26 12:12:58;;;;;;;12.63;7.90;;;33.10;37.40;;;;;;5075135;28;20435;-90
2022/08/26 12:15:25;;;;;;;20.23;7.50;;;32.80;38.80;;;;;;5042366;28;20448;-93
2022/08/26 12:17:53;;;;;;;10.30;7.83;;;32.80;40.20;;;;;;5043216;28;20711;-91
2022/08/26 12:20:44;;;;;;;16.03;7.20;;;32.50;39.90;;;;;;5035258;28;20452;-90
2022/08/26 12:23:22;;;;;;;9.60;6.40;;;32.40;40.00;;;;;;5024952;28;20845;-90
2022/08/26 12:25:50;;;;;;;11.80;8.20;;;32.30;39.80;;;;;;5050739;28;21195;-92
2022/08/26 12:28:20;;;;;;;9.60;7.03;;;32.40;39.90;;;;;;5047808;28;20448;-92
2022/08/26 12:31:01;;;;;;;10.77;7.13;;;32.50;40.70;;;;;;5065664;28;20505;-90
2022/08/26 12:33:29;;;;;;;10.50;6.67;;;32.40;40.70;;;;;;5063728;28;20460;-90
2022/08/26 12:35:58;;;;;;;11.70;6.83;;;32.40;40.40;;;;;;5061100;28;20448;-91
2022/08/26 12:38:26;;;;;;;10.33;7.17;;;32.30;41.10;;;;;;5045643;28;20510;-91
2022/08/26 12:40:54;;;;;;;8.60;6.23;;;32.20;41.80;;;;;;5053180;28;20471;-91
2022/08/26 12:43:42;;;;;;;12.43;7.07;;;32.20;42.00;;;;;;5081642;28;20906;-90
2022/08/26 12:46:12;;;;;;;12.23;8.10;;;32.10;42.30;;;;;;5063412;28;20520;-91
2022/08/26 12:48:43;;;;;;;9.10;7.37;;;32.30;42.70;;;;;;5061670;28;20517;-91
2022/08/26 12:51:20;;;;;;;10.83;7.03;;;32.30;42.80;;;;;;5052514;28;20515;-91
2022/08/26 12:53:47;;;;;;;16.70;7.40;;;32.20;42.90;;;;;;5068129;28;20500;-91
2022/08/26 12:56:31;;;;;;;16.00;6.40;;;31.90;42.50;;;;;;5077441;28;20455;-91
2022/08/26 12:59:04;;;;;;;10.17;6.40;;;31.70;41.80;;;;;;5057504;28;20467;-89
2022/08/26 13:01:38;;;;;;;8.23;6.80;;;31.70;41.00;;;;;;5043691;28;20465;-90